Time;durP1;ratioP1;P1;durP2;ratioP2;P2;SDS_P1;SDS_P2;PMS_P1;PMS_P2;Temp;Humidity;BMP_temperature;BMP_pressure;BME280_temperature;BME280_humidity;BME280_pressure;Samples;Min_cycle;Max_cycle;Signal;HPM_P1;HPM_P2
2021/08/26 00:07:07;;;;;;;15.80;7.88;;;;;;;18.45;69.39;101954.09;5028339;28;20053;-82
2021/08/26 00:09:34;;;;;;;12.77;7.82;;;;;;;18.42;69.46;101958.44;5044328;28;20047;-81
2021/08/26 00:12:01;;;;;;;18.30;8.15;;;;;;;18.41;69.42;101956.81;5042973;28;20533;-82
2021/08/26 00:14:28;;;;;;;14.65;8.48;;;;;;;18.35;69.63;101946.28;5059442;28;20375;-81
2021/08/26 00:16:54;;;;;;;12.70;8.82;;;;;;;18.30;69.88;101944.56;5050284;28;20055;-82
2021/08/26 00:19:21;;;;;;;13.45;8.02;;;;;;;18.27;69.67;101954.53;5057512;28;20116;-82
2021/08/26 00:21:48;;;;;;;16.88;9.02;;;;;;;18.25;69.77;101953.25;5049919;28;20033;-81
2021/08/26 00:24:14;;;;;;;14.80;8.65;;;;;;;18.21;69.89;101955.97;5057531;28;20037;-81
2021/08/26 00:26:41;;;;;;;13.18;8.23;;;;;;;18.18;69.97;101953.94;5051173;28;20494;-82
2021/08/26 00:29:08;;;;;;;16.73;10.38;;;;;;;18.16;69.93;101952.69;5046632;28;20041;-81
2021/08/26 00:31:34;;;;;;;13.77;8.45;;;;;;;18.14;70.04;101952.22;5047483;28;20040;-82
2021/08/26 00:34:01;;;;;;;14.30;8.48;;;;;;;18.14;70.13;101950.22;5048975;28;20105;-82
2021/08/26 00:36:28;;;;;;;13.15;9.35;;;;;;;18.12;70.09;101954.59;5051036;28;20040;-82
2021/08/26 00:38:55;;;;;;;14.77;9.05;;;;;;;18.09;70.19;101949.72;5056498;28;20067;-81
2021/08/26 00:41:22;;;;;;;13.80;9.05;;;;;;;18.06;70.35;101942.84;5046827;28;20120;-81
2021/08/26 00:43:49;;;;;;;16.60;8.45;;;;;;;18.02;70.44;101944.78;5037457;28;20126;-81
2021/08/26 00:46:16;;;;;;;16.98;10.80;;;;;;;18.04;70.41;101947.19;5039708;28;20037;-82
2021/08/26 00:48:44;;;;;;;17.50;10.90;;;;;;;18.15;70.08;101948.25;5042221;28;20056;-83
2021/08/26 00:51:12;;;;;;;13.98;10.27;;;;;;;18.07;70.09;101947.28;5048823;28;20120;-82
2021/08/26 00:53:40;;;;;;;25.85;13.55;;;;;;;17.99;70.48;101948.31;5048449;28;20197;-82
2021/08/26 00:56:12;;;;;;;17.38;12.40;;;;;;;18.07;70.52;101943.66;5038181;28;20033;-82
2021/08/26 00:58:42;;;;;;;19.90;11.27;;;;;;;18.03;70.33;101940.00;5037702;28;20045;-81
2021/08/26 01:01:10;;;;;;;22.65;11.32;;;;;;;17.96;70.92;101940.63;5033567;28;20098;-81
2021/08/26 01:03:47;;;;;;;16.67;10.48;;;;;;;17.95;70.76;101932.59;5047955;28;20079;-81
2021/08/26 01:06:22;;;;;;;15.55;10.52;;;;;;;17.87;70.92;101942.03;5037066;28;20041;-81
2021/08/26 01:09:00;;;;;;;21.02;11.45;;;;;;;17.79;71.37;101945.84;5053856;28;20032;-81
2021/08/26 01:11:28;;;;;;;18.95;11.80;;;;;;;17.78;71.38;101944.19;5042804;28;20037;-82
2021/08/26 01:13:55;;;;;;;18.30;11.63;;;;;;;17.78;71.20;101944.19;5046426;28;20048;-81
2021/08/26 01:16:22;;;;;;;16.20;10.05;;;;;;;17.70;71.36;101942.41;5043207;28;20087;-81
2021/08/26 01:18:49;;;;;;;19.00;12.18;;;;;;;17.64;71.53;101934.28;5046461;28;20065;-82
2021/08/26 01:21:18;;;;;;;19.23;11.55;;;;;;;17.60;71.74;101933.41;5034748;28;20386;-82
2021/08/26 01:23:54;;;;;;;20.75;12.43;;;;;;;17.58;71.93;101927.34;5063239;28;20067;-82
2021/08/26 01:26:30;;;;;;;18.88;11.07;;;;;;;17.58;72.09;101923.72;5049219;28;20839;-82
2021/08/26 01:29:00;;;;;;;19.05;10.05;;;;;;;17.68;71.75;101933.56;5050421;28;20041;-81
2021/08/26 01:31:27;;;;;;;18.40;11.23;;;;;;;17.65;71.54;101932.31;5029046;28;20049;-81
2021/08/26 01:33:55;;;;;;;17.70;10.60;;;;;;;17.58;71.81;101930.13;5049620;28;20091;-81
2021/08/26 01:36:32;;;;;;;26.33;12.80;;;;;;;17.51;72.26;101929.94;5036161;28;20049;-81
2021/08/26 01:39:07;;;;;;;20.30;11.60;;;;;;;17.47;72.47;101929.03;5063820;28;20080;-81
2021/08/26 01:41:39;;;;;;;16.35;11.10;;;;;;;17.44;72.52;101917.78;5033967;28;20047;-81
2021/08/26 01:44:06;;;;;;;;;;;;;;;17.39;72.57;101923.66;5037033;28;20128;-81
2021/08/26 01:46:33;;;;;;;18.13;11.43;;;;;;;17.44;72.36;101918.59;5041012;28;19920;-81
2021/08/26 01:49:00;;;;;;;15.90;11.65;;;;;;;17.44;72.02;101907.38;5033277;28;20037;-82
2021/08/26 01:51:27;;;;;;;14.95;10.85;;;;;;;17.43;72.26;101911.34;5046534;28;20056;-81
2021/08/26 01:53:55;;;;;;;18.23;11.02;;;;;;;17.39;72.26;101909.66;5049721;28;20408;-81
2021/08/26 01:56:22;;;;;;;19.30;12.43;;;;;;;17.41;72.12;101904.50;5056228;28;20391;-82
2021/08/26 01:58:49;;;;;;;19.50;11.73;;;;;;;17.42;71.96;101915.31;5065349;28;20491;-81
2021/08/26 02:01:16;;;;;;;20.38;11.23;;;;;;;17.42;71.98;101904.13;5047339;28;20039;-81
2021/08/26 02:03:43;;;;;;;21.23;12.38;;;;;;;17.38;72.18;101900.44;5051350;28;20045;-81
2021/08/26 02:06:10;;;;;;;16.70;12.07;;;;;;;17.37;72.15;101893.19;5049338;28;20055;-82
2021/08/26 02:08:36;;;;;;;17.83;11.85;;;;;;;17.38;72.18;101897.63;5047217;28;20475;-81
2021/08/26 02:11:03;;;;;;;16.35;10.35;;;;;;;17.36;72.09;101902.78;5061678;28;20616;-82
2021/08/26 02:13:30;;;;;;;16.13;10.55;;;;;;;17.35;72.11;101895.56;5043104;28;20041;-81
2021/08/26 02:15:57;;;;;;;16.85;10.60;;;;;;;17.39;71.72;101901.25;5038949;28;20423;-81
2021/08/26 02:18:24;;;;;;;18.13;11.93;;;;;;;17.40;71.77;101908.47;5032350;28;20388;-81
2021/08/26 02:20:50;;;;;;;15.85;10.38;;;;;;;17.33;71.96;101895.13;5051879;28;20055;-82
2021/08/26 02:23:17;;;;;;;14.02;9.52;;;;;;;17.33;71.93;101897.91;5052635;28;20040;-81
2021/08/26 02:25:44;;;;;;;16.80;10.88;;;;;;;17.29;72.18;101908.19;5045964;28;20091;-81
2021/08/26 02:28:11;;;;;;;15.60;10.48;;;;;;;17.25;72.25;101893.31;5055477;28;20043;-81
2021/08/26 02:30:38;;;;;;;14.25;10.27;;;;;;;17.22;72.47;101905.25;5050973;28;20086;-81
2021/08/26 02:33:05;;;;;;;15.82;10.15;;;;;;;17.23;72.28;101906.88;5052378;28;20032;-82
2021/08/26 02:35:32;;;;;;;16.33;11.50;;;;;;;17.23;72.18;101908.84;5047540;28;20063;-81
2021/08/26 02:37:59;;;;;;;20.05;11.27;;;;;;;17.17;72.52;101902.72;5041153;28;20059;-82
2021/08/26 02:40:26;;;;;;;17.15;12.45;;;;;;;17.13;72.56;101912.19;5043642;28;20033;-82
2021/08/26 02:42:52;;;;;;;15.57;11.45;;;;;;;17.05;72.70;101914.81;5060237;28;20542;-82
2021/08/26 02:45:19;;;;;;;20.77;11.07;;;;;;;17.00;73.07;101912.28;5037402;28;20047;-81
2021/08/26 02:47:46;;;;;;;15.27;10.10;;;;;;;16.94;72.96;101905.31;5033038;28;20038;-81
2021/08/26 02:50:12;;;;;;;16.92;10.20;;;;;;;16.91;73.10;101906.06;5037392;28;20461;-81
2021/08/26 02:52:39;;;;;;;15.52;9.00;;;;;;;16.87;73.16;101904.31;5044130;28;20048;-80
2021/08/26 02:55:07;;;;;;;14.55;9.95;;;;;;;16.88;73.15;101903.16;5073617;28;20037;-81
2021/08/26 02:57:33;;;;;;;13.20;8.45;;;;;;;16.89;72.92;101907.59;5050736;28;20055;-81
2021/08/26 03:00:00;;;;;;;13.88;8.20;;;;;;;16.87;73.02;101905.13;5042794;28;20055;-81
2021/08/26 03:02:27;;;;;;;13.95;8.80;;;;;;;16.86;72.92;101897.13;5050491;28;20048;-81
2021/08/26 03:04:53;;;;;;;11.30;8.02;;;;;;;16.84;73.01;101902.25;5049539;28;20388;-81
2021/08/26 03:07:20;;;;;;;14.30;7.95;;;;;;;16.83;72.95;101892.25;5052607;28;20376;-81
2021/08/26 03:09:47;;;;;;;12.73;7.70;;;;;;;16.80;73.05;101893.78;5047276;28;20055;-81
2021/08/26 03:12:13;;;;;;;11.73;8.68;;;;;;;16.80;72.90;101892.97;5053230;28;20044;-81
2021/08/26 03:14:40;;;;;;;10.93;8.63;;;;;;;16.77;73.07;101893.66;5044469;28;20044;-81
2021/08/26 03:17:07;;;;;;;11.20;7.68;;;;;;;16.71;73.04;101890.31;5067430;28;20119;-81
2021/08/26 03:19:34;;;;;;;12.43;8.90;;;;;;;16.68;73.27;101896.63;5052256;28;20041;-81
2021/08/26 03:22:01;;;;;;;13.57;7.47;;;;;;;16.65;73.12;101888.16;5040973;28;20033;-82
2021/08/26 03:24:27;;;;;;;11.60;6.85;;;;;;;16.62;73.28;101889.69;5048655;28;20053;-81
2021/08/26 03:26:54;;;;;;;14.02;8.10;;;;;;;16.63;73.19;101901.66;5051083;28;20052;-81
2021/08/26 03:29:21;;;;;;;10.57;7.40;;;;;;;16.61;73.26;101902.03;5044745;28;20099;-81
2021/08/26 03:31:48;;;;;;;9.10;6.55;;;;;;;16.61;73.02;101895.63;5048960;28;20061;-81
2021/08/26 03:34:14;;;;;;;10.98;6.15;;;;;;;16.58;73.25;101894.38;5039664;28;20477;-80
2021/08/26 03:36:41;;;;;;;9.20;5.57;;;;;;;16.57;73.31;101891.94;5041462;28;20041;-81
2021/08/26 03:39:08;;;;;;;8.80;6.18;;;;;;;16.54;73.30;101893.47;5036565;28;20041;-81
2021/08/26 03:41:34;;;;;;;11.27;6.22;;;;;;;16.55;73.39;101891.50;5037951;28;20068;-81
2021/08/26 03:44:01;;;;;;;8.30;6.57;;;;;;;16.60;73.22;101886.41;5047352;28;20044;-81
2021/08/26 03:46:30;;;;;;;9.95;6.18;;;;;;;16.69;72.61;101887.09;5034323;28;20037;-81
2021/08/26 03:48:57;;;;;;;9.93;6.13;;;;;;;16.70;72.44;101883.13;5047248;28;20076;-81
2021/08/26 03:51:26;;;;;;;12.38;7.60;;;;;;;16.60;72.86;101885.63;5048557;28;20037;-82
2021/08/26 03:53:53;;;;;;;8.27;6.03;;;;;;;16.54;73.00;101889.84;5059360;28;20045;-81
2021/08/26 03:56:19;;;;;;;8.30;6.07;;;;;;;16.52;73.04;101886.56;5044741;28;20040;-81
2021/08/26 03:58:46;;;;;;;7.13;5.28;;;;;;;16.48;73.30;101883.69;5049859;28;20510;-81
2021/08/26 04:01:13;;;;;;;8.88;6.88;;;;;;;16.51;73.21;101887.75;5044999;28;20048;-81
2021/08/26 04:03:40;;;;;;;8.43;6.70;;;;;;;16.46;73.25;101883.22;5031506;28;20033;-81
2021/08/26 04:06:06;;;;;;;11.15;7.07;;;;;;;16.41;73.35;101875.91;5048250;28;20043;-81
2021/08/26 04:08:33;;;;;;;9.32;6.82;;;;;;;16.37;73.39;101872.19;5071258;28;20490;-81
2021/08/26 04:11:00;;;;;;;8.60;6.50;;;;;;;16.32;73.20;101869.66;5050869;28;20701;-81
2021/08/26 04:13:27;;;;;;;11.32;6.85;;;;;;;16.29;73.35;101881.56;5031734;28;20041;-80
2021/08/26 04:15:53;;;;;;;11.90;6.88;;;;;;;16.27;73.77;101872.72;5045439;28;20045;-81
2021/08/26 04:18:20;;;;;;;11.65;6.60;;;;;;;16.23;73.71;101880.19;5036066;28;20033;-81
2021/08/26 04:20:47;;;;;;;10.27;6.75;;;;;;;16.21;74.03;101876.13;5046112;28;20035;-81
2021/08/26 04:23:14;;;;;;;10.93;7.32;;;;;;;16.18;74.17;101891.59;5039792;28;20047;-81
2021/08/26 04:25:41;;;;;;;9.85;7.10;;;;;;;16.19;74.07;101884.88;5049484;28;20054;-81
2021/08/26 04:28:07;;;;;;;9.13;7.07;;;;;;;16.20;74.11;101888.47;5045823;28;20069;-82
2021/08/26 04:30:34;;;;;;;9.98;6.80;;;;;;;16.19;73.61;101884.88;5040546;28;20490;-82
2021/08/26 04:33:02;;;;;;;12.93;8.20;;;;;;;16.15;74.17;101883.94;5031434;28;20037;-81
2021/08/26 04:35:29;;;;;;;9.15;7.35;;;;;;;16.14;74.29;101889.91;5030632;28;20049;-81
2021/08/26 04:37:56;;;;;;;19.33;9.98;;;;;;;16.10;74.35;101886.16;5050819;28;20136;-80
2021/08/26 04:40:23;;;;;;;14.82;7.97;;;;;;;16.05;74.49;101883.63;5045598;28;20035;-81
2021/08/26 04:42:49;;;;;;;13.40;7.80;;;;;;;16.04;74.54;101888.44;5047055;28;20041;-81
2021/08/26 04:45:17;;;;;;;12.50;8.00;;;;;;;16.05;74.48;101887.25;5046793;28;20045;-81
2021/08/26 04:47:44;;;;;;;11.27;7.05;;;;;;;16.04;74.41;101884.81;5034135;28;20045;-81
2021/08/26 04:50:11;;;;;;;11.13;7.78;;;;;;;16.07;74.47;101892.50;5034001;28;20040;-82
2021/08/26 04:52:38;;;;;;;12.98;8.88;;;;;;;16.12;74.64;101890.25;5047528;28;20131;-81
2021/08/26 04:55:05;;;;;;;13.75;8.05;;;;;;;16.11;74.40;101888.63;5029075;28;21834;-81
2021/08/26 04:57:32;;;;;;;14.50;8.82;;;;;;;16.08;74.50;101892.13;5039764;28;21964;-81
2021/08/26 04:59:59;;;;;;;17.08;9.07;;;;;;;16.10;74.51;101892.56;5041189;28;20051;-81
2021/08/26 05:02:25;;;;;;;14.45;9.57;;;;;;;16.14;74.47;101892.69;5059813;28;20531;-81
2021/08/26 05:04:52;;;;;;;16.88;9.43;;;;;;;16.13;74.42;101897.47;5041905;28;20434;-81
2021/08/26 05:07:19;;;;;;;15.18;9.57;;;;;;;16.13;74.56;101894.66;5058609;28;20029;-81
2021/08/26 05:09:46;;;;;;;13.98;10.18;;;;;;;16.11;74.52;101894.22;5040624;28;20095;-81
2021/08/26 05:12:13;;;;;;;16.73;10.60;;;;;;;16.07;74.48;101893.28;5040538;28;20052;-81
2021/08/26 05:14:40;;;;;;;15.50;10.70;;;;;;;16.00;74.63;101893.06;5046942;28;20040;-81
2021/08/26 05:17:07;;;;;;;13.82;9.32;;;;;;;15.98;74.90;101891.81;5040927;28;20042;-81
2021/08/26 05:19:33;;;;;;;15.57;10.23;;;;;;;15.99;75.36;101902.63;5051546;28;20052;-81
2021/08/26 05:22:00;;;;;;;14.50;9.57;;;;;;;15.98;74.89;101895.41;5050354;28;20045;-81
2021/08/26 05:24:27;;;;;;;13.65;9.80;;;;;;;15.96;74.80;101900.56;5048623;28;20037;-81
2021/08/26 05:26:54;;;;;;;12.80;9.63;;;;;;;15.97;74.85;101904.13;5067582;28;20044;-80
2021/08/26 05:29:20;;;;;;;17.58;11.40;;;;;;;15.93;74.96;101903.22;5052792;28;20063;-81
2021/08/26 05:31:47;;;;;;;18.92;11.25;;;;;;;15.93;74.99;101909.63;5047742;28;20034;-81
2021/08/26 05:34:14;;;;;;;16.02;10.52;;;;;;;15.93;75.09;101906.84;5053767;28;20044;-81
2021/08/26 05:36:41;;;;;;;16.67;10.63;;;;;;;15.95;75.05;101901.72;5054566;28;20814;-81
2021/08/26 05:39:07;;;;;;;17.27;10.65;;;;;;;15.96;75.17;101905.31;5046557;28;20049;-81
2021/08/26 05:41:34;;;;;;;14.30;8.88;;;;;;;15.94;75.23;101908.44;5032000;28;20033;-81
2021/08/26 05:44:01;;;;;;;18.40;10.35;;;;;;;15.95;75.32;101912.88;5046177;28;20128;-80
2021/08/26 05:46:28;;;;;;;16.58;10.05;;;;;;;16.01;75.08;101911.47;5042034;28;20037;-81
2021/08/26 05:48:54;;;;;;;15.90;10.55;;;;;;;16.06;75.06;101916.81;5045683;28;20044;-81
2021/08/26 05:51:21;;;;;;;16.92;10.85;;;;;;;16.11;75.01;101902.59;5044324;28;20049;-81
2021/08/26 05:53:48;;;;;;;18.70;11.88;;;;;;;16.16;74.76;101909.91;5060171;28;20046;-81
2021/08/26 05:56:14;;;;;;;15.07;10.63;;;;;;;16.22;74.62;101909.31;5061346;28;20048;-81
2021/08/26 05:58:41;;;;;;;19.83;11.70;;;;;;;16.19;74.58;101912.00;5033447;28;20522;-81
2021/08/26 06:01:08;;;;;;;17.15;10.63;;;;;;;16.15;74.90;101923.06;5041927;28;20045;-81
2021/08/26 06:03:35;;;;;;;15.65;10.90;;;;;;;16.16;74.86;101929.47;5054262;28;20037;-81
2021/08/26 06:06:02;;;;;;;18.65;11.40;;;;;;;16.12;75.03;101923.78;5042623;28;20049;-81
2021/08/26 06:08:29;;;;;;;15.43;10.70;;;;;;;16.09;75.26;101930.06;5043240;28;20041;-81
2021/08/26 06:10:56;;;;;;;22.35;11.55;;;;;;;16.08;75.50;101928.44;5038406;28;20033;-80
2021/08/26 06:13:23;;;;;;;21.52;11.30;;;;;;;16.09;75.47;101927.28;5040313;28;20032;-81
2021/08/26 06:15:51;;;;;;;21.08;10.77;;;;;;;16.16;75.63;101930.28;5046401;28;20484;-81
2021/08/26 06:18:18;;;;;;;16.77;9.77;;;;;;;16.23;75.57;101938.06;5033239;28;20095;-81
2021/08/26 06:20:45;;;;;;;20.02;11.35;;;;;;;16.25;75.51;101939.34;5055873;28;20068;-81
2021/08/26 06:23:11;;;;;;;18.38;10.82;;;;;;;16.30;75.47;101946.66;5034439;28;20042;-80
2021/08/26 06:25:38;;;;;;;22.10;11.20;;;;;;;16.33;75.67;101941.19;5047619;28;20040;-81
2021/08/26 06:28:05;;;;;;;14.23;11.40;;;;;;;16.38;75.47;101940.91;5046376;28;20380;-81
2021/08/26 06:30:32;;;;;;;15.30;10.23;;;;;;;16.41;75.80;101937.38;5051051;28;20086;-81
2021/08/26 06:32:59;;;;;;;17.25;11.13;;;;;;;16.42;75.76;101941.81;5047058;28;20482;-81
2021/08/26 06:35:26;;;;;;;18.02;10.40;;;;;;;16.45;75.89;101949.50;5045442;28;20463;-81
2021/08/26 06:37:52;;;;;;;15.98;10.70;;;;;;;16.56;75.92;101938.66;5042256;28;20791;-81
2021/08/26 06:40:19;;;;;;;14.80;11.00;;;;;;;16.65;75.57;101935.69;5053280;28;20090;-81
2021/08/26 06:42:46;;;;;;;14.55;10.20;;;;;;;16.74;75.65;101933.53;5060265;28;20292;-81
2021/08/26 06:45:13;;;;;;;17.90;10.95;;;;;;;16.80;75.42;101927.34;5061785;28;20041;-81
2021/08/26 06:47:40;;;;;;;25.48;12.05;;;;;;;16.83;75.65;101934.19;5057167;28;20045;-81
2021/08/26 06:50:07;;;;;;;14.85;10.88;;;;;;;16.88;75.44;101936.72;5037429;28;20040;-81
2021/08/26 06:52:34;;;;;;;16.42;9.93;;;;;;;16.93;75.18;101934.47;5048083;28;20041;-81
2021/08/26 06:55:05;;;;;;;16.65;10.80;;;;;;;16.97;75.38;101932.56;5043425;28;20048;-82
2021/08/26 06:57:32;;;;;;;16.55;10.95;;;;;;;17.03;75.12;101930.31;5066454;28;20531;-81
2021/08/26 06:59:59;;;;;;;18.77;9.65;;;;;;;17.07;74.97;101931.25;5034919;28;20424;-81
2021/08/26 07:02:26;;;;;;;20.05;10.55;;;;;;;17.12;75.31;101927.34;5040882;28;20124;-80
2021/08/26 07:04:53;;;;;;;14.57;10.60;;;;;;;17.17;75.07;101924.28;5032233;28;20118;-82
2021/08/26 07:07:20;;;;;;;18.75;11.35;;;;;;;17.20;75.19;101927.19;5048559;28;20053;-82
2021/08/26 07:09:46;;;;;;;17.10;10.27;;;;;;;17.24;75.14;101930.06;5033980;28;20037;-82
2021/08/26 07:12:13;;;;;;;16.67;10.45;;;;;;;17.28;75.12;101928.97;5051436;28;20042;-82
2021/08/26 07:14:40;;;;;;;18.90;13.32;;;;;;;17.32;75.12;101927.06;5033085;28;20045;-82
2021/08/26 07:17:07;;;;;;;16.00;11.13;;;;;;;17.34;75.23;101924.72;5035004;28;20124;-82
2021/08/26 07:19:33;;;;;;;21.90;11.02;;;;;;;17.34;75.15;101924.72;5056636;28;20115;-81
2021/08/26 07:22:00;;;;;;;16.38;11.27;;;;;;;17.32;75.24;101921.47;5049794;28;20059;-82
2021/08/26 07:24:27;;;;;;;22.00;11.02;;;;;;;17.33;75.42;101925.09;5049093;28;20097;-82
2021/08/26 07:26:53;;;;;;;15.88;9.93;;;;;;;17.37;75.38;101929.59;5042637;28;20119;-82
2021/08/26 07:29:20;;;;;;;16.52;9.65;;;;;;;17.42;75.14;101934.13;5049586;28;20047;-82
2021/08/26 07:31:47;;;;;;;16.80;10.73;;;;;;;17.46;75.21;101927.44;5042965;28;20056;-82
2021/08/26 07:34:14;;;;;;;18.17;9.93;;;;;;;17.51;75.18;101932.75;5039210;28;20039;-82
2021/08/26 07:36:41;;;;;;;15.73;10.30;;;;;;;17.54;75.23;101928.44;5058531;28;20052;-82
2021/08/26 07:39:07;;;;;;;19.45;10.98;;;;;;;17.53;75.42;101927.63;5046630;28;20045;-82
2021/08/26 07:41:34;;;;;;;23.23;9.93;;;;;;;17.61;75.13;101923.81;5032494;28;20041;-81
2021/08/26 07:44:02;;;;;;;15.18;9.80;;;;;;;17.66;75.18;101924.72;5040956;28;20046;-83
2021/08/26 07:46:28;;;;;;;14.50;9.35;;;;;;;17.68;75.21;101923.19;5048464;28;20467;-82
2021/08/26 07:48:55;;;;;;;13.27;8.85;;;;;;;17.71;75.30;101916.03;5057438;28;20076;-81
2021/08/26 07:51:22;;;;;;;14.35;8.88;;;;;;;17.73;75.07;101914.50;5045731;28;20045;-82
2021/08/26 07:53:48;;;;;;;11.77;8.25;;;;;;;17.73;75.08;101911.69;5039772;28;20746;-80
2021/08/26 07:56:15;;;;;;;14.63;8.68;;;;;;;17.75;75.01;101920.53;5038179;28;20041;-81
2021/08/26 07:58:43;;;;;;;10.88;7.32;;;;;;;17.81;74.91;101921.06;5065067;28;20045;-81
2021/08/26 08:01:09;;;;;;;10.15;7.13;;;;;;;17.85;74.79;101922.75;5051185;28;20044;-81
2021/08/26 08:03:36;;;;;;;14.45;9.05;;;;;;;17.94;74.73;101925.38;5034797;28;20062;-83
2021/08/26 08:06:05;;;;;;;10.38;6.88;;;;;;;17.98;74.69;101924.25;5030413;28;20160;-82
2021/08/26 08:08:32;;;;;;;12.00;7.57;;;;;;;18.05;74.63;101932.03;5041176;28;20456;-81
2021/08/26 08:10:59;;;;;;;11.60;7.03;;;;;;;18.12;74.96;101932.16;5050559;28;20090;-80
2021/08/26 08:13:30;;;;;;;13.18;7.10;;;;;;;18.20;75.07;101933.94;5070760;28;20037;-81
2021/08/26 08:15:57;;;;;;;14.60;7.40;;;;;;;18.28;75.15;101924.50;5050772;28;20037;-81
2021/08/26 08:18:23;;;;;;;13.27;7.68;;;;;;;18.37;75.49;101933.50;5051676;28;20048;-82
2021/08/26 08:20:52;;;;;;;10.40;7.05;;;;;;;18.44;75.69;101932.81;5047366;28;20037;-82
2021/08/26 08:23:18;;;;;;;12.55;6.72;;;;;;;18.60;76.15;101933.59;5043105;28;20037;-84
2021/08/26 08:25:45;;;;;;;10.35;7.30;;;;;;;18.73;76.36;101930.25;5043398;28;20032;-82
2021/08/26 08:28:14;;;;;;;10.35;6.60;;;;;;;18.89;76.45;101932.94;5051743;28;20067;-83
2021/08/26 08:30:41;;;;;;;11.48;7.18;;;;;;;19.10;77.14;101929.69;5051845;28;20139;-83
2021/08/26 08:33:09;;;;;;;7.40;6.57;;;;;;;19.35;77.04;101933.75;5053776;28;20212;-82
2021/08/26 08:35:36;;;;;;;7.38;5.63;;;;;;;19.60;76.60;101934.16;5061441;28;20033;-82
2021/08/26 08:38:03;;;;;;;8.05;5.43;;;;;;;19.92;76.03;101933.47;5052991;28;20040;-82
2021/08/26 08:40:30;;;;;;;8.65;4.72;;;;;;;20.38;74.55;101930.47;5050875;28;20036;-82
2021/08/26 08:42:58;;;;;;;8.00;5.35;;;;;;;20.91;72.42;101931.88;5050474;28;20037;-82
2021/08/26 08:45:25;;;;;;;8.18;4.85;;;;;;;21.49;70.51;101934.84;5056785;28;20037;-82
2021/08/26 08:47:55;;;;;;;8.10;4.63;;;;;;;22.26;67.86;101926.06;5052943;28;20041;-83
2021/08/26 08:50:23;;;;;;;7.65;5.10;;;;;;;22.99;65.58;101923.88;5061830;28;20119;-83
2021/08/26 08:52:51;;;;;;;10.68;6.22;;;;;;;23.63;63.21;101922.69;5065941;28;20079;-83
2021/08/26 08:55:19;;;;;;;6.53;4.75;;;;;;;24.25;61.42;101922.16;5065574;28;20059;-84
2021/08/26 08:57:46;;;;;;;7.22;4.65;;;;;;;24.74;59.67;101919.06;5068965;28;20040;-83
2021/08/26 09:00:16;;;;;;;5.55;4.47;;;;;;;25.18;57.84;101926.88;5054295;28;20041;-83
2021/08/26 09:02:42;;;;;;;7.32;4.45;;;;;;;25.41;56.74;101923.44;5050239;28;20048;-84
2021/08/26 09:05:10;;;;;;;6.68;4.65;;;;;;;25.70;56.06;101927.66;5051659;28;20037;-82
2021/08/26 09:07:37;;;;;;;9.00;5.20;;;;;;;26.05;54.59;101929.31;5050537;28;20021;-83
2021/08/26 09:10:06;;;;;;;7.80;5.03;;;;;;;26.26;53.49;101936.78;5051998;28;20041;-81
2021/08/26 09:12:42;;;;;;;7.18;4.90;;;;;;;26.37;52.07;101937.47;5052465;28;20063;-81
2021/08/26 09:15:12;;;;;;;6.03;4.55;;;;;;;26.51;51.78;101935.22;5051617;28;20037;-83
2021/08/26 09:17:39;;;;;;;5.63;4.38;;;;;;;26.86;51.35;101936.81;5047483;28;20464;-83
2021/08/26 09:20:09;;;;;;;5.85;4.60;;;;;;;27.18;50.22;101939.16;5055819;28;20467;-82
2021/08/26 09:22:37;;;;;;;5.53;4.35;;;;;;;27.30;49.78;101937.75;5051053;28;20033;-84
2021/08/26 09:25:05;;;;;;;5.93;4.43;;;;;;;27.32;49.09;101946.66;5067649;28;20052;-81
2021/08/26 09:27:31;;;;;;;6.05;4.10;;;;;;;27.46;48.88;101935.03;5054684;28;20056;-80
2021/08/26 09:29:59;;;;;;;4.82;3.70;;;;;;;27.61;48.52;101939.28;5050607;28;20087;-80
2021/08/26 09:32:41;;;;;;;4.25;3.85;;;;;;;27.63;47.79;101933.94;5050231;28;20052;-81
2021/08/26 09:35:22;;;;;;;7.28;4.53;;;;;;;27.73;47.93;101936.59;5065548;28;20075;-81
2021/08/26 09:37:52;;;;;;;6.70;3.90;;;;;;;27.96;47.58;101937.81;5069222;28;20040;-82
2021/08/26 09:40:25;;;;;;;7.00;4.03;;;;;;;28.07;47.21;101929.88;5050003;28;20036;-82
2021/08/26 09:43:10;;;;;;;5.97;4.28;;;;;;;28.04;46.88;101922.22;5050356;28;20051;-83
2021/08/26 09:45:39;;;;;;;6.25;4.82;;;;;;;28.03;46.80;101926.31;5049840;28;20037;-83
2021/08/26 09:48:08;;;;;;;6.43;4.57;;;;;;;28.01;46.04;101918.16;5062714;28;20056;-82
2021/08/26 09:50:45;;;;;;;5.50;4.57;;;;;;;28.02;45.86;101922.66;5052397;28;20071;-82
2021/08/26 09:53:15;;;;;;;4.80;4.28;;;;;;;28.03;45.92;101932.00;5047426;28;20071;-82
2021/08/26 09:55:51;;;;;;;5.10;4.60;;;;;;;28.16;45.49;101925.22;5053136;28;20064;-83
2021/08/26 09:58:23;;;;;;;15.95;5.22;;;;;;;28.24;45.68;101920.16;5055035;28;20048;-82
2021/08/26 10:01:09;;;;;;;6.57;4.50;;;;;;;28.33;45.12;101915.47;5066901;28;20032;-82
2021/08/26 10:03:36;;;;;;;9.43;5.10;;;;;;;28.25;45.42;101911.19;5067447;28;20045;-82
2021/08/26 10:06:04;;;;;;;5.28;3.90;;;;;;;28.26;45.59;101917.69;5053698;28;20490;-82
2021/08/26 10:08:32;;;;;;;7.30;4.55;;;;;;;28.26;45.88;101924.19;5057123;28;20037;-83
2021/08/26 10:11:00;;;;;;;6.18;3.80;;;;;;;28.31;45.78;101915.13;5053669;28;20052;-82
2021/08/26 10:13:31;;;;;;;4.28;3.40;;;;;;;28.39;45.74;101921.47;5053110;28;20048;-82
2021/08/26 10:15:59;;;;;;;8.05;4.25;;;;;;;28.44;45.51;101923.78;5069657;28;20037;-82
2021/08/26 10:18:28;;;;;;;9.68;4.40;;;;;;;28.41;45.88;101926.75;5066983;28;20048;-82
2021/08/26 10:20:56;;;;;;;5.30;4.20;;;;;;;28.31;45.41;101925.72;5073333;28;20037;-82
2021/08/26 10:23:24;;;;;;;7.18;4.13;;;;;;;28.31;45.51;101923.66;5051851;28;20547;-83
2021/08/26 10:25:54;;;;;;;6.78;5.00;;;;;;;28.30;45.53;101918.41;5057221;28;20047;-82
2021/08/26 10:28:21;;;;;;;6.95;5.00;;;;;;;28.25;46.36;101921.78;5060254;28;20044;-82
2021/08/26 10:30:48;;;;;;;5.60;5.00;;;;;;;28.06;46.66;101922.59;5062425;28;20147;-82
2021/08/26 10:33:22;;;;;;;6.25;4.82;;;;;;;27.96;46.64;101926.41;5051929;28;20115;-82
2021/08/26 10:35:56;;;;;;;6.35;5.07;;;;;;;27.60;47.74;101920.59;5062927;28;20051;-83
2021/08/26 10:38:28;;;;;;;10.00;5.72;;;;;;;27.32;47.67;101924.72;5053386;28;20036;-83
2021/08/26 10:41:19;;;;;;;10.00;5.25;;;;;;;27.14;48.38;101925.00;5045283;28;20472;-82
2021/08/26 10:44:07;;;;;;;9.52;5.78;;;;;;;27.03;48.32;101932.88;5055263;28;20033;-82
2021/08/26 10:46:54;;;;;;;7.82;6.00;;;;;;;26.57;49.30;101935.56;5058647;28;20041;-82
2021/08/26 10:49:23;;;;;;;5.63;4.95;;;;;;;26.34;49.01;101935.47;5047047;28;20025;-82
2021/08/26 10:51:53;;;;;;;7.55;5.70;;;;;;;25.99;49.83;101937.47;5049738;28;21776;-82
2021/08/26 10:54:31;;;;;;;10.50;6.05;;;;;;;25.66;50.37;101941.06;5047702;28;20108;-82
2021/08/26 10:57:29;;;;;;;7.30;5.80;;;;;;;25.49;51.52;101944.06;5050749;28;20053;-82
2021/08/26 10:59:56;;;;;;;7.03;5.53;;;;;;;25.37;51.27;101936.84;5046395;28;20099;-82
2021/08/26 11:02:41;;;;;;;6.03;5.43;;;;;;;25.34;52.33;101943.34;5051923;28;20044;-83
2021/08/26 11:05:37;;;;;;;10.43;6.60;;;;;;;25.07;52.37;101939.53;5037326;28;20033;-83
2021/08/26 11:08:30;;;;;;;6.20;5.30;;;;;;;24.72;53.24;101935.66;5041813;28;20064;-82
2021/08/26 11:11:18;;;;;;;5.65;4.75;;;;;;;24.45;53.48;101934.59;5035532;28;20123;-83
2021/08/26 11:13:46;;;;;;;6.90;6.10;;;;;;;24.16;54.24;101933.09;5043459;28;20522;-83
2021/08/26 11:16:25;;;;;;;8.07;5.97;;;;;;;23.98;55.45;101937.97;5060685;28;20083;-82
2021/08/26 11:18:56;;;;;;;6.78;6.07;;;;;;;23.66;55.65;101931.56;5063987;28;20065;-81
2021/08/26 11:21:44;;;;;;;10.68;5.85;;;;;;;23.42;56.92;101922.72;5051797;28;20046;-82
2021/08/26 11:24:22;;;;;;;9.30;6.15;;;;;;;23.27;56.84;101938.00;5053537;28;20422;-82
2021/08/26 11:26:50;;;;;;;8.23;5.25;;;;;;;23.19;57.21;101936.41;5052520;28;20120;-82
2021/08/26 11:29:17;;;;;;;15.35;7.68;;;;;;;22.99;57.70;101938.00;5052107;28;20045;-82